createdAt,value
2022-10-14T00:01:18.319Z,37.72
2022-10-14T00:03:56.474Z,39.15
2022-10-14T00:06:27.139Z,39.25
2022-10-14T00:08:57.002Z,38.80
2022-10-14T00:11:30.867Z,38.60
2022-10-14T00:14:01.159Z,38.70
2022-10-14T00:16:32.877Z,39.22
2022-10-14T00:19:00.675Z,38.80
2022-10-14T00:21:29.261Z,39.08
2022-10-14T00:23:59.020Z,38.80
2022-10-14T00:26:33.894Z,40.00
2022-10-14T00:29:02.100Z,37.10
2022-10-14T00:31:32.499Z,37.10
2022-10-14T00:34:00.375Z,34.88
2022-10-14T00:36:27.711Z,36.65
2022-10-14T00:38:55.012Z,38.22
2022-10-14T00:41:25.432Z,37.90
2022-10-14T00:44:00.009Z,38.80
2022-10-14T00:46:49.953Z,38.20
2022-10-14T00:49:45.964Z,37.80
2022-10-14T00:52:19.410Z,37.55
2022-10-14T00:54:53.647Z,38.85
2022-10-14T00:57:22.972Z,35.78
2022-10-14T00:59:51.235Z,36.78
2022-10-14T01:02:18.176Z,36.75
2022-10-14T01:04:46.678Z,38.55
2022-10-14T01:07:22.870Z,36.78
2022-10-14T01:09:59.379Z,36.38
2022-10-14T01:12:39.354Z,38.15
2022-10-14T01:15:15.618Z,38.97
2022-10-14T01:17:57.813Z,38.13
2022-10-14T01:20:46.185Z,36.97
2022-10-14T01:23:42.303Z,38.40
2022-10-14T01:26:48.622Z,38.33
2022-10-14T01:29:54.345Z,39.92
2022-10-14T01:32:28.294Z,39.83
2022-10-14T01:35:30.533Z,41.95
2022-10-14T01:38:11.594Z,41.65
2022-10-14T01:40:55.323Z,40.03
2022-10-14T01:43:26.488Z,40.90
2022-10-14T01:45:55.880Z,41.58
2022-10-14T01:48:28.338Z,41.40
2022-10-14T01:50:58.584Z,40.35
2022-10-14T01:53:32.603Z,39.30
2022-10-14T01:56:02.516Z,40.75
2022-10-14T01:58:32.719Z,42.75
2022-10-14T02:01:04.336Z,41.35
2022-10-14T02:03:40.468Z,43.70
2022-10-14T02:06:17.762Z,43.95
2022-10-14T02:09:09.808Z,42.60
2022-10-14T02:12:01.548Z,43.83
2022-10-14T02:14:39.934Z,43.28
2022-10-14T02:17:17.632Z,45.53
2022-10-14T02:19:52.861Z,47.13
2022-10-14T02:22:37.121Z,50.65
2022-10-14T02:25:28.159Z,49.50
2022-10-14T02:27:56.060Z,49.92
2022-10-14T02:30:23.475Z,50.05
2022-10-14T02:32:59.344Z,50.67
2022-10-14T02:35:30.723Z,49.75
2022-10-14T02:37:59.235Z,50.42
2022-10-14T02:40:35.383Z,50.00
2022-10-14T02:43:08.087Z,50.85
2022-10-14T02:45:35.208Z,50.67
2022-10-14T02:48:02.311Z,49.92
2022-10-14T02:50:29.991Z,50.47
2022-10-14T02:52:56.893Z,48.47
2022-10-14T02:55:23.935Z,49.17
2022-10-14T02:57:51.405Z,48.33
2022-10-14T03:00:19.292Z,49.60
2022-10-14T03:02:49.200Z,47.67
2022-10-14T03:05:21.166Z,48.45
2022-10-14T03:07:50.562Z,48.03
2022-10-14T03:10:19.489Z,49.83
2022-10-14T03:12:48.020Z,47.67
2022-10-14T03:15:24.285Z,46.75
2022-10-14T03:17:52.469Z,49.10
2022-10-14T03:20:24.272Z,49.05
2022-10-14T03:22:59.418Z,45.22
2022-10-14T03:25:27.889Z,45.97
2022-10-14T03:28:16.260Z,45.55
2022-10-14T03:30:52.309Z,45.00
2022-10-14T03:33:35.736Z,44.22
2022-10-14T03:36:10.420Z,40.60
2022-10-14T03:38:50.383Z,43.15
2022-10-14T03:41:47.217Z,43.58
2022-10-14T03:44:17.612Z,42.75
2022-10-14T03:47:09.346Z,45.65
2022-10-14T03:49:38.363Z,42.75
2022-10-14T03:52:12.915Z,40.75
2022-10-14T03:54:42.627Z,42.22
2022-10-14T03:57:11.515Z,42.88
2022-10-14T03:59:45.232Z,39.78
2022-10-14T04:02:13.041Z,41.95
2022-10-14T04:04:41.565Z,43.45
2022-10-14T04:07:09.214Z,39.53
2022-10-14T04:09:42.510Z,39.33
2022-10-14T04:12:12.853Z,39.80
2022-10-14T04:14:50.448Z,39.70
2022-10-14T04:17:17.619Z,39.17
2022-10-14T04:19:45.263Z,38.90
2022-10-14T04:22:14.314Z,38.22
2022-10-14T04:24:41.644Z,37.78
2022-10-14T04:27:08.563Z,40.28
2022-10-14T04:29:45.575Z,38.58
2022-10-14T04:32:19.693Z,38.50
2022-10-14T04:34:47.634Z,39.90
2022-10-14T04:37:18.499Z,38.00
2022-10-14T04:39:52.652Z,37.55
2022-10-14T04:42:22.248Z,38.97
2022-10-14T04:44:54.371Z,34.92
2022-10-14T04:47:29.046Z,37.55
2022-10-14T04:50:00.742Z,37.33
2022-10-14T04:52:30.112Z,38.88
2022-10-14T04:55:04.836Z,35.17
2022-10-14T04:57:43.959Z,33.50
2022-10-14T05:00:15.979Z,36.58
2022-10-14T05:02:56.979Z,37.28
2022-10-14T05:05:33.020Z,35.38
2022-10-14T05:08:05.632Z,36.25
2022-10-14T05:10:37.847Z,34.70
2022-10-14T05:13:08.845Z,33.78
2022-10-14T05:15:46.437Z,36.05
2022-10-14T05:18:13.906Z,36.00
2022-10-14T05:21:00.072Z,34.30
2022-10-14T05:23:39.616Z,35.65
2022-10-14T05:26:10.899Z,34.95
2022-10-14T05:28:40.122Z,36.40
2022-10-14T05:31:08.837Z,35.47
2022-10-14T05:33:48.331Z,36.13
2022-10-14T05:36:15.546Z,33.80
2022-10-14T05:38:42.491Z,35.00
2022-10-14T05:41:10.262Z,37.33
2022-10-14T05:43:38.447Z,37.65
2022-10-14T05:46:09.121Z,38.35
2022-10-14T05:51:11.921Z,37.17
2022-10-14T05:53:40.032Z,37.85
2022-10-14T05:56:12.846Z,37.42
2022-10-14T05:58:41.330Z,38.47
2022-10-14T06:01:11.249Z,38.53
2022-10-14T06:03:43.656Z,40.38
2022-10-14T06:06:14.673Z,37.25
2022-10-14T06:08:45.218Z,39.65
2022-10-14T06:11:13.181Z,39.20
2022-10-14T06:13:40.377Z,37.97
2022-10-14T06:16:10.164Z,39.38
2022-10-14T06:18:38.020Z,38.15
2022-10-14T06:21:06.110Z,39.08
2022-10-14T06:23:34.712Z,39.17
2022-10-14T06:26:06.588Z,39.60
2022-10-14T06:28:33.626Z,36.65
2022-10-14T06:31:00.867Z,39.20
2022-10-14T06:33:30.880Z,36.40
2022-10-14T06:35:57.997Z,34.42
2022-10-14T06:38:25.244Z,34.97
2022-10-14T06:40:53.377Z,34.55
2022-10-14T06:43:21.752Z,34.30
2022-10-14T06:45:51.269Z,34.05
2022-10-14T06:48:18.635Z,34.20
2022-10-14T06:50:45.509Z,33.35
2022-10-14T06:53:12.686Z,33.30
2022-10-14T06:55:39.624Z,31.20
2022-10-14T06:58:06.974Z,30.17
2022-10-14T07:00:34.564Z,30.38
2022-10-14T07:03:01.582Z,30.15
2022-10-14T07:05:29.038Z,28.90
2022-10-14T07:07:58.620Z,28.42
2022-10-14T07:10:25.518Z,27.92
2022-10-14T07:12:56.343Z,26.73
2022-10-14T07:15:23.735Z,27.73
2022-10-14T07:17:50.848Z,26.92
2022-10-14T07:20:17.897Z,27.35
2022-10-14T07:22:45.979Z,26.33
2022-10-14T07:25:13.030Z,25.98
2022-10-14T07:27:41.006Z,26.13
2022-10-14T07:30:11.495Z,26.85
2022-10-14T07:32:43.042Z,29.13
2022-10-14T07:35:13.115Z,26.42
2022-10-14T07:37:40.091Z,26.52
2022-10-14T07:40:07.638Z,26.70
2022-10-14T07:42:34.935Z,24.52
2022-10-14T07:45:02.771Z,26.25
2022-10-14T07:47:29.976Z,26.58
2022-10-14T07:49:57.235Z,27.27
2022-10-14T07:52:24.267Z,26.77
2022-10-14T07:54:51.185Z,27.98
2022-10-14T07:57:18.717Z,27.85
2022-10-14T07:59:48.366Z,27.20
2022-10-14T08:02:18.176Z,25.55
2022-10-14T08:04:45.976Z,26.17
2022-10-14T08:07:14.637Z,26.40
2022-10-14T08:09:41.894Z,25.30
2022-10-14T08:12:08.952Z,24.05
2022-10-14T08:14:36.516Z,26.27
2022-10-14T08:17:03.706Z,25.52
2022-10-14T08:19:30.792Z,27.98
2022-10-14T08:21:57.983Z,25.67
2022-10-14T08:24:27.604Z,26.23
2022-10-14T08:26:57.141Z,25.65
2022-10-14T08:29:24.881Z,25.67
2022-10-14T08:31:54.210Z,24.90
2022-10-14T08:34:24.624Z,25.02
2022-10-14T08:36:51.969Z,25.90
2022-10-14T08:39:19.547Z,24.45
2022-10-14T08:42:24.575Z,24.85
2022-10-14T08:45:24.154Z,26.23
2022-10-14T08:47:57.186Z,25.77
2022-10-14T08:50:33.862Z,25.70
2022-10-14T08:53:12.530Z,26.92
2022-10-14T08:55:41.222Z,26.58
2022-10-14T08:58:38.669Z,26.73
2022-10-14T09:01:19.768Z,26.85
2022-10-14T09:03:47.183Z,28.77
2022-10-14T09:06:22.581Z,29.15
2022-10-14T09:08:50.774Z,28.75
2022-10-14T09:11:24.264Z,30.48
2022-10-14T09:13:57.970Z,29.27
2022-10-14T09:16:29.630Z,28.20
2022-10-14T09:18:59.673Z,27.10
2022-10-14T09:21:53.655Z,25.58
2022-10-14T09:24:28.537Z,25.38
2022-10-14T09:27:03.172Z,26.63
2022-10-14T09:29:37.669Z,26.10
2022-10-14T09:32:09.979Z,26.55
2022-10-14T09:34:39.992Z,26.02
2022-10-14T09:37:29.478Z,27.23
2022-10-14T09:40:08.861Z,28.63
2022-10-14T09:42:50.174Z,27.52
2022-10-14T09:45:22.715Z,26.95
2022-10-14T09:47:59.547Z,27.67
2022-10-14T09:50:26.988Z,27.30
2022-10-14T09:53:10.915Z,26.67
2022-10-14T09:55:47.195Z,26.67
2022-10-14T09:58:18.706Z,27.10
2022-10-14T10:00:46.379Z,25.58
2022-10-14T10:03:29.629Z,27.45
2022-10-14T10:06:06.122Z,27.27
2022-10-14T10:08:34.794Z,27.10
2022-10-14T10:11:14.018Z,27.65
2022-10-14T10:13:48.452Z,27.05
2022-10-14T10:16:34.881Z,26.42
2022-10-14T10:19:31.347Z,26.23
2022-10-14T10:22:23.026Z,26.95
2022-10-14T10:24:53.083Z,26.45
2022-10-14T10:27:27.929Z,25.48
2022-10-14T10:29:57.209Z,25.67
2022-10-14T10:32:50.285Z,27.27
2022-10-14T10:35:52.713Z,26.55
2022-10-14T10:38:25.806Z,27.52
2022-10-14T10:41:41.395Z,26.08
2022-10-14T10:44:44.642Z,23.45
2022-10-14T10:47:31.513Z,26.63
2022-10-14T10:50:18.356Z,25.50
2022-10-14T10:53:11.619Z,25.58
2022-10-14T10:56:00.164Z,24.15
2022-10-14T10:58:49.002Z,26.00
2022-10-14T11:01:28.492Z,24.85
2022-10-14T11:04:16.396Z,25.38
2022-10-14T11:07:05.648Z,25.83
2022-10-14T11:10:10.439Z,26.42
2022-10-14T11:13:00.212Z,25.67
2022-10-14T11:15:47.526Z,25.02
2022-10-14T11:18:45.652Z,25.80
2022-10-14T11:21:39.167Z,25.60
2022-10-14T11:24:19.924Z,24.15
2022-10-14T11:26:59.481Z,24.83
2022-10-14T11:29:57.912Z,23.27
2022-10-14T11:33:00.216Z,22.80
2022-10-14T11:35:47.655Z,21.15
2022-10-14T11:41:35.568Z,20.35
2022-10-14T11:44:08.524Z,21.33
2022-10-14T11:46:45.958Z,20.55
2022-10-14T11:49:27.183Z,20.08
2022-10-14T11:52:03.657Z,21.38
2022-10-14T11:54:42.999Z,22.25
2022-10-14T11:57:13.052Z,20.92
2022-10-14T11:59:49.121Z,21.95
2022-10-14T12:02:44.347Z,20.42
2022-10-14T12:05:34.229Z,19.95
2022-10-14T12:08:28.425Z,21.35
2022-10-14T12:11:30.178Z,19.33
2022-10-14T12:14:11.125Z,18.25
2022-10-14T12:16:42.167Z,18.83
2022-10-14T12:19:14.550Z,18.58
2022-10-14T12:21:59.708Z,22.05
2022-10-14T12:24:36.390Z,21.10
2022-10-14T12:27:06.147Z,21.95
2022-10-14T12:29:53.210Z,21.35
2022-10-14T12:32:26.008Z,20.67
2022-10-14T12:34:58.275Z,20.75
2022-10-14T12:37:28.923Z,20.08
2022-10-14T12:40:07.852Z,18.65
2022-10-14T12:42:44.162Z,18.98
2022-10-14T12:45:16.158Z,18.52
2022-10-14T12:47:44.171Z,18.63
2022-10-14T12:50:14.188Z,20.45
2022-10-14T12:52:46.116Z,19.92
2022-10-14T12:55:23.816Z,18.33
2022-10-14T12:57:57.269Z,18.90
2022-10-14T13:00:24.163Z,19.60
2022-10-14T13:02:59.354Z,17.10
2022-10-14T13:05:29.325Z,19.23
2022-10-14T13:08:23.701Z,18.90
2022-10-14T13:10:59.865Z,17.65
2022-10-14T13:13:49.440Z,18.85
2022-10-14T13:16:25.649Z,17.15
2022-10-14T13:19:00.668Z,18.52
2022-10-14T13:21:36.871Z,18.20
2022-10-14T13:24:38.533Z,18.77
2022-10-14T13:27:23.117Z,19.38
2022-10-14T13:30:34.048Z,19.95
2022-10-14T13:33:31.645Z,19.25
2022-10-14T13:36:14.113Z,19.55
2022-10-14T13:38:46.911Z,19.85
2022-10-14T13:41:30.567Z,19.42
2022-10-14T13:44:04.981Z,19.50
2022-10-14T13:46:47.751Z,20.50
2022-10-14T13:49:20.463Z,20.25
2022-10-14T13:51:55.205Z,20.40
2022-10-14T13:54:23.079Z,20.95
2022-10-14T14:00:37.893Z,19.58
2022-10-14T14:02:42.757Z,21.02
2022-10-14T14:05:16.310Z,20.95
2022-10-14T14:10:51.452Z,19.70
2022-10-14T14:13:25.317Z,18.85
2022-10-14T14:15:54.516Z,17.52
2022-10-14T14:19:03.998Z,18.50
2022-10-14T14:21:34.882Z,18.17
2022-10-14T14:24:02.338Z,19.05
2022-10-14T14:26:35.499Z,18.63
2022-10-14T14:29:22.721Z,18.55
2022-10-14T14:32:07.918Z,17.42
2022-10-14T14:34:39.771Z,17.63
2022-10-14T14:37:40.216Z,18.58
2022-10-14T14:40:07.475Z,16.80
2022-10-14T14:42:37.650Z,16.48
2022-10-14T14:45:12.617Z,16.58
2022-10-14T14:47:41.097Z,16.70
2022-10-14T14:50:30.892Z,16.33
2022-10-14T14:53:04.263Z,16.25
2022-10-14T14:55:35.994Z,16.77
2022-10-14T14:58:40.886Z,16.83
2022-10-14T15:01:32.584Z,16.63
2022-10-14T15:04:12.926Z,16.10
2022-10-14T15:06:51.032Z,16.88
2022-10-14T15:09:38.864Z,15.82
2022-10-14T15:12:15.186Z,15.93
2022-10-14T15:14:48.631Z,16.90
2022-10-14T15:17:35.784Z,18.67
2022-10-14T15:20:05.882Z,21.40
2022-10-14T15:22:36.254Z,19.05
2022-10-14T15:25:07.901Z,28.50
2022-10-14T15:27:35.474Z,40.58
2022-10-14T15:30:21.313Z,25.55
2022-10-14T15:35:21.131Z,42.78
2022-10-14T15:37:52.130Z,25.85
2022-10-14T15:40:22.505Z,26.17
2022-10-14T15:42:54.571Z,28.23
2022-10-14T15:45:22.146Z,27.13
2022-10-14T15:50:25.965Z,34.67
2022-10-14T15:52:56.963Z,28.98
2022-10-14T15:55:26.888Z,36.83
2022-10-14T15:57:54.096Z,25.70
2022-10-14T16:00:22.733Z,23.67
2022-10-14T16:02:55.772Z,24.75
2022-10-14T16:05:22.825Z,24.83
2022-10-14T16:07:49.930Z,23.60
2022-10-14T16:10:21.330Z,19.70
2022-10-14T16:12:48.986Z,25.85
2022-10-14T16:15:28.124Z,33.20
2022-10-14T16:17:55.198Z,47.85
2022-10-14T16:20:22.860Z,45.67
2022-10-14T16:22:50.184Z,52.17
2022-10-14T16:25:33.792Z,43.63
2022-10-14T16:28:01.688Z,42.60
2022-10-14T16:30:28.727Z,38.30
2022-10-14T16:32:56.129Z,28.55
2022-10-14T16:35:23.152Z,35.47
2022-10-14T16:37:50.179Z,23.48
2022-10-14T16:40:17.342Z,26.35
2022-10-14T16:42:44.436Z,22.60
2022-10-14T16:45:14.313Z,21.27
2022-10-14T16:47:41.881Z,23.63
2022-10-14T16:50:13.052Z,38.53
2022-10-14T16:53:02.127Z,37.05
2022-10-14T16:55:32.522Z,31.25
2022-10-14T16:57:59.807Z,25.52
2022-10-14T17:00:27.095Z,25.45
2022-10-14T17:02:59.997Z,37.03
2022-10-14T17:05:31.878Z,30.67
2022-10-14T17:07:58.942Z,28.88
2022-10-14T17:10:28.818Z,25.52
2022-10-14T17:13:06.132Z,23.60
2022-10-14T17:15:36.616Z,24.27
2022-10-14T17:18:09.863Z,21.98
2022-10-14T17:20:39.380Z,22.60
2022-10-14T17:23:10.222Z,21.80
2022-10-14T17:25:40.147Z,22.08
2022-10-14T17:28:07.625Z,20.60
2022-10-14T17:30:34.967Z,19.33
2022-10-14T17:33:02.325Z,20.20
2022-10-14T17:35:29.492Z,18.70
2022-10-14T17:37:57.240Z,20.42
2022-10-14T17:40:26.699Z,21.25
2022-10-14T17:42:54.728Z,20.77
2022-10-14T17:45:26.179Z,20.08
2022-10-14T17:47:58.305Z,19.13
2022-10-14T17:50:27.144Z,20.25
2022-10-14T17:52:58.882Z,20.08
2022-10-14T17:55:29.197Z,17.75
2022-10-14T17:57:57.077Z,20.17
2022-10-14T18:00:24.525Z,20.30
2022-10-14T18:02:52.126Z,20.42
2022-10-14T18:05:20.765Z,20.27
2022-10-14T18:07:51.712Z,20.40
2022-10-14T18:10:21.013Z,23.52
2022-10-14T18:12:48.807Z,23.23
2022-10-14T18:15:18.592Z,22.08
2022-10-14T18:17:47.083Z,21.60
2022-10-14T18:20:16.902Z,23.85
2022-10-14T18:22:44.373Z,21.98
2022-10-14T18:25:15.373Z,23.30
2022-10-14T18:27:44.306Z,22.48
2022-10-14T18:30:13.568Z,21.20
2022-10-14T18:32:41.093Z,21.92
2022-10-14T18:35:09.017Z,23.05
2022-10-14T18:37:37.161Z,22.95
2022-10-14T18:40:05.155Z,21.55
2022-10-14T18:42:32.463Z,20.85
2022-10-14T18:45:00.337Z,21.90
2022-10-14T18:47:28.264Z,21.48
2022-10-14T18:49:58.459Z,21.13
2022-10-14T18:52:26.302Z,22.08
2022-10-14T18:54:55.735Z,23.73
2022-10-14T18:57:26.257Z,21.40
2022-10-14T18:59:53.870Z,22.65
2022-10-14T19:02:21.730Z,26.80
2022-10-14T19:04:50.228Z,43.85
2022-10-14T19:07:18.104Z,38.13
2022-10-14T19:09:46.317Z,32.47
2022-10-14T19:12:32.710Z,27.58
2022-10-14T19:15:01.049Z,26.60
2022-10-14T19:17:29.713Z,25.30
2022-10-14T19:19:58.839Z,24.70
2022-10-14T19:22:26.855Z,25.75
2022-10-14T19:24:54.238Z,26.23
2022-10-14T19:27:22.170Z,26.13
2022-10-14T19:29:50.746Z,25.58
2022-10-14T19:32:21.121Z,26.63
2022-10-14T19:34:52.012Z,25.20
2022-10-14T19:37:20.123Z,26.67
2022-10-14T19:39:47.903Z,25.58
2022-10-14T19:42:15.524Z,25.90
2022-10-14T19:44:43.244Z,27.73
2022-10-14T19:47:11.633Z,25.38
2022-10-14T19:49:39.937Z,27.15
2022-10-14T19:52:08.263Z,27.83
2022-10-14T19:54:36.156Z,26.60
2022-10-14T19:57:05.368Z,25.80
2022-10-14T19:59:36.073Z,25.67
2022-10-14T20:02:03.152Z,25.77
2022-10-14T20:04:30.615Z,29.55
2022-10-14T20:06:58.591Z,27.48
2022-10-14T20:09:26.357Z,29.10
2022-10-14T20:11:55.830Z,26.70
2022-10-14T20:14:24.049Z,28.38
2022-10-14T20:16:53.662Z,27.73
2022-10-14T20:19:23.558Z,29.88
2022-10-14T20:21:50.832Z,28.83
2022-10-14T20:24:17.781Z,32.67
2022-10-14T20:26:44.806Z,30.02
2022-10-14T20:29:11.964Z,30.92
2022-10-14T20:31:39.318Z,27.63
2022-10-14T20:34:10.246Z,32.55
2022-10-14T20:36:38.502Z,32.42
2022-10-14T20:39:05.488Z,33.40
2022-10-14T20:41:32.649Z,31.95
2022-10-14T20:43:59.909Z,33.50
2022-10-14T20:46:26.927Z,30.60
2022-10-14T20:48:57.600Z,30.75
2022-10-14T20:51:25.351Z,29.45
2022-10-14T20:54:03.025Z,31.13
2022-10-14T20:56:34.114Z,30.67
2022-10-14T20:59:04.269Z,32.15
2022-10-14T21:01:32.717Z,30.08
2022-10-14T21:04:04.719Z,38.15
2022-10-14T21:06:31.646Z,32.72
2022-10-14T21:09:01.074Z,33.33
2022-10-14T21:11:28.310Z,35.53
2022-10-14T21:14:00.699Z,38.63
2022-10-14T21:16:34.106Z,42.60
2022-10-14T21:19:09.401Z,38.03
2022-10-14T21:21:39.268Z,36.58
2022-10-14T21:24:07.634Z,40.25
2022-10-14T21:26:34.743Z,40.70
2022-10-14T21:29:05.148Z,37.30
2022-10-14T21:31:32.598Z,44.30
2022-10-14T21:34:06.061Z,41.40
2022-10-14T21:36:37.602Z,38.10
2022-10-14T21:39:13.522Z,38.67
2022-10-14T21:41:41.559Z,37.10
2022-10-14T21:44:10.909Z,40.22
2022-10-14T21:46:37.911Z,38.10
2022-10-14T21:49:05.213Z,42.00
2022-10-14T21:51:32.937Z,41.55
2022-10-14T21:53:59.850Z,43.10
2022-10-14T21:56:28.115Z,45.63
2022-10-14T21:58:55.615Z,44.67
2022-10-14T22:01:27.911Z,47.20
2022-10-14T22:04:03.870Z,43.20
2022-10-14T22:09:01.125Z,47.17
2022-10-14T22:11:39.830Z,53.33
2022-10-14T22:14:17.569Z,54.30
2022-10-14T22:16:47.788Z,52.67
2022-10-14T22:19:15.324Z,51.95
2022-10-14T22:21:43.634Z,50.70
2022-10-14T22:24:11.104Z,49.88
2022-10-14T22:26:40.400Z,52.65
2022-10-14T22:29:13.116Z,53.75
2022-10-14T22:31:40.811Z,54.47
2022-10-14T22:34:10.020Z,54.88
2022-10-14T22:36:37.381Z,53.58
2022-10-14T22:39:08.058Z,54.30
2022-10-14T22:41:36.130Z,54.72
2022-10-14T22:44:05.742Z,53.58
2022-10-14T22:46:35.483Z,56.00
2022-10-14T22:49:02.543Z,53.83
2022-10-14T22:51:32.802Z,53.20
2022-10-14T22:54:00.176Z,56.08
2022-10-14T22:56:29.044Z,60.40
2022-10-14T22:59:01.954Z,50.72
2022-10-14T23:01:29.199Z,50.10
2022-10-14T23:03:57.588Z,55.00
2022-10-14T23:06:25.482Z,57.75
2022-10-14T23:08:54.353Z,51.25
2022-10-14T23:11:23.409Z,54.17
2022-10-14T23:13:51.098Z,52.03
2022-10-14T23:16:23.674Z,56.35
2022-10-14T23:18:51.092Z,59.47
2022-10-14T23:21:20.910Z,59.70
2022-10-14T23:23:49.721Z,60.15
2022-10-14T23:26:21.372Z,61.00
2022-10-14T23:28:56.257Z,60.97
2022-10-14T23:31:26.702Z,62.53
2022-10-14T23:33:54.613Z,56.10
2022-10-14T23:36:22.511Z,57.45
2022-10-14T23:38:51.706Z,56.60
2022-10-14T23:41:19.493Z,57.28
2022-10-14T23:43:46.510Z,66.32
2022-10-14T23:46:14.067Z,64.00
2022-10-14T23:48:41.252Z,65.85
2022-10-14T23:51:08.924Z,67.20
2022-10-14T23:53:36.147Z,58.85
2022-10-14T23:56:04.396Z,59.22
2022-10-14T23:58:34.515Z,66.25
